createdAt,value
2019-04-03T00:01:07.081Z,48.92
2019-04-03T00:02:13.628Z,48.98
2019-04-03T00:03:17.814Z,48.71
2019-04-03T00:04:21.898Z,48.78
2019-04-03T00:05:26.126Z,48.78
2019-04-03T00:06:30.680Z,48.92
2019-04-03T00:07:35.911Z,48.90
2019-04-03T00:08:40.100Z,48.83
2019-04-03T00:09:44.076Z,48.76
2019-04-03T00:10:48.165Z,48.61
2019-04-03T00:11:52.086Z,48.49
2019-04-03T00:12:56.267Z,49.05
2019-04-03T00:14:00.329Z,49.43
2019-04-03T00:15:05.592Z,49.79
2019-04-03T00:16:09.765Z,50.09
2019-04-03T00:17:15.511Z,50.30
2019-04-03T00:18:20.154Z,50.12
2019-04-03T00:19:24.434Z,50.01
2019-04-03T00:20:28.705Z,49.84
2019-04-03T00:21:32.886Z,49.92
2019-04-03T00:22:38.009Z,50.03
2019-04-03T00:23:42.040Z,49.86
2019-04-03T00:24:46.193Z,50.04
2019-04-03T00:25:52.102Z,50.26
2019-04-03T00:26:56.566Z,50.71
2019-04-03T00:28:01.083Z,50.86
2019-04-03T00:29:05.078Z,51.06
2019-04-03T00:30:09.587Z,51.28
2019-04-03T00:31:13.977Z,51.35
2019-04-03T00:32:17.926Z,51.30
2019-04-03T00:33:23.377Z,51.58
2019-04-03T00:34:28.157Z,51.71
2019-04-03T00:35:32.246Z,52.01
2019-04-03T00:36:36.449Z,52.09
2019-04-03T00:37:40.314Z,52.32
2019-04-03T00:38:44.439Z,52.46
2019-04-03T00:39:48.677Z,52.39
2019-04-03T00:40:54.308Z,52.36
2019-04-03T00:41:58.478Z,52.37
2019-04-03T00:43:03.260Z,52.54
2019-04-03T00:44:07.446Z,52.63
2019-04-03T00:45:12.060Z,52.53
2019-04-03T00:46:16.125Z,52.72
2019-04-03T00:47:19.971Z,52.74
2019-04-03T00:48:25.748Z,52.72
2019-04-03T00:49:29.949Z,52.86
2019-04-03T00:50:33.890Z,53.18
2019-04-03T00:51:37.967Z,53.39
2019-04-03T00:52:42.524Z,53.28
2019-04-03T00:53:47.586Z,53.53
2019-04-03T00:54:51.511Z,53.63
2019-04-03T00:55:56.497Z,53.81
2019-04-03T00:57:01.114Z,54.01
2019-04-03T00:58:49.633Z,53.88
2019-04-03T00:59:54.686Z,53.79
2019-04-03T01:00:59.563Z,53.58
2019-04-03T01:02:03.566Z,53.69
2019-04-03T01:03:07.892Z,53.71
2019-04-03T01:04:12.288Z,53.78
2019-04-03T01:05:16.562Z,54.02
2019-04-03T01:06:21.345Z,54.18
2019-04-03T01:07:25.661Z,54.40
2019-04-03T01:08:29.825Z,54.59
2019-04-03T01:09:34.161Z,54.95
2019-04-03T01:10:38.132Z,55.14
2019-04-03T01:11:42.149Z,55.06
2019-04-03T01:12:46.239Z,54.96
2019-04-03T01:13:50.158Z,54.89
2019-04-03T01:14:53.993Z,54.70
2019-04-03T01:15:58.467Z,54.57
2019-04-03T01:17:04.416Z,54.40
2019-04-03T01:18:08.271Z,54.26
2019-04-03T01:19:12.697Z,54.24
2019-04-03T01:20:16.792Z,54.45
2019-04-03T01:21:20.970Z,54.51
2019-04-03T01:22:25.031Z,54.81
2019-04-03T01:23:28.978Z,54.82
2019-04-03T01:24:33.541Z,54.82
2019-04-03T01:25:39.443Z,54.89
2019-04-03T01:26:43.654Z,54.84
2019-04-03T01:27:47.495Z,54.87
2019-04-03T01:28:51.694Z,54.92
2019-04-03T01:29:55.921Z,54.72
2019-04-03T01:31:00.077Z,54.57
2019-04-03T01:32:04.777Z,54.55
2019-04-03T01:33:08.711Z,54.39
2019-04-03T01:34:13.301Z,54.28
2019-04-03T01:35:17.866Z,54.03
2019-04-03T01:36:22.310Z,53.90
2019-04-03T01:37:26.563Z,54.00
2019-04-03T01:38:30.533Z,53.77
2019-04-03T01:39:34.489Z,53.43
2019-04-03T01:40:38.649Z,53.33
2019-04-03T01:41:42.965Z,53.29
2019-04-03T01:42:46.877Z,53.21
2019-04-03T01:43:53.159Z,53.17
2019-04-03T01:44:57.423Z,53.25
2019-04-03T01:46:01.914Z,53.37
2019-04-03T01:47:05.783Z,53.33
2019-04-03T01:48:10.018Z,53.25
2019-04-03T01:49:14.202Z,53.23
2019-04-03T01:50:18.342Z,52.96
2019-04-03T01:51:22.596Z,52.95
2019-04-03T01:52:27.089Z,52.92
2019-04-03T01:53:32.712Z,52.88
2019-04-03T01:54:37.056Z,52.80
2019-04-03T01:55:41.343Z,52.84
2019-04-03T01:56:45.256Z,52.89
2019-04-03T01:57:50.410Z,52.86
2019-04-03T01:58:54.682Z,52.75
2019-04-03T01:59:58.857Z,52.74
2019-04-03T02:01:03.393Z,52.79
2019-04-03T02:02:08.507Z,52.86
2019-04-03T02:03:13.062Z,52.86
2019-04-03T02:04:17.830Z,52.88
2019-04-03T02:05:22.366Z,53.03
2019-04-03T02:06:26.577Z,52.89
2019-04-03T02:07:31.203Z,52.75
2019-04-03T02:08:35.033Z,52.78
2019-04-03T02:09:38.932Z,52.88
2019-04-03T02:10:43.243Z,52.87
2019-04-03T02:11:47.647Z,52.73
2019-04-03T02:12:53.197Z,52.61
2019-04-03T02:13:57.650Z,52.46
2019-04-03T02:15:01.982Z,52.42
2019-04-03T02:16:06.082Z,52.70
2019-04-03T02:17:10.250Z,52.90
2019-04-03T02:18:14.089Z,52.87
2019-04-03T02:19:18.490Z,52.87
2019-04-03T02:20:22.471Z,53.00
2019-04-03T02:21:27.712Z,53.08
2019-04-03T02:22:32.142Z,53.15
2019-04-03T02:23:36.332Z,53.12
2019-04-03T02:24:40.493Z,53.14
2019-04-03T02:25:44.547Z,53.22
2019-04-03T02:26:48.798Z,53.25
2019-04-03T02:27:55.797Z,53.36
2019-04-03T02:28:59.876Z,53.32
2019-04-03T02:30:04.505Z,53.22
2019-04-03T02:31:08.451Z,53.29
2019-04-03T02:32:12.308Z,53.25
2019-04-03T02:33:16.777Z,53.14
2019-04-03T02:34:20.631Z,53.15
2019-04-03T02:35:24.775Z,53.07
2019-04-03T02:36:28.973Z,53.06
2019-04-03T02:37:33.456Z,53.33
2019-04-03T02:38:37.638Z,53.24
2019-04-03T02:39:42.108Z,53.10
2019-04-03T02:40:46.635Z,53.18
2019-04-03T02:41:50.999Z,53.24
2019-04-03T02:42:55.062Z,53.11
2019-04-03T02:43:59.017Z,53.11
2019-04-03T02:45:03.735Z,53.03
2019-04-03T02:46:07.710Z,52.94
2019-04-03T02:47:11.780Z,53.02
2019-04-03T02:48:16.214Z,52.94
2019-04-03T02:49:20.924Z,52.86
2019-04-03T02:50:26.670Z,52.79
2019-04-03T02:51:31.253Z,52.88
2019-04-03T02:52:36.260Z,52.86
2019-04-03T02:53:40.667Z,52.73
2019-04-03T02:54:45.460Z,52.81
2019-04-03T02:55:49.711Z,52.71
2019-04-03T02:56:54.223Z,52.80
2019-04-03T02:57:58.906Z,52.99
2019-04-03T02:59:02.932Z,53.10
2019-04-03T03:00:08.575Z,53.17
2019-04-03T03:01:12.746Z,52.77
2019-04-03T03:02:16.945Z,52.56
2019-04-03T03:03:21.271Z,52.55
2019-04-03T03:04:26.519Z,52.55
2019-04-03T03:05:30.715Z,52.34
2019-04-03T03:06:34.643Z,52.25
2019-04-03T03:07:38.838Z,52.32
2019-04-03T03:08:43.105Z,52.47
2019-04-03T03:09:48.038Z,52.53
2019-04-03T03:10:53.478Z,52.69
2019-04-03T03:11:58.421Z,52.62
2019-04-03T03:13:02.802Z,52.94
2019-04-03T03:14:08.245Z,53.15
2019-04-03T03:15:12.792Z,53.15
2019-04-03T03:16:18.444Z,52.99
2019-04-03T03:17:23.627Z,53.11
2019-04-03T03:18:28.698Z,53.21
2019-04-03T03:19:33.945Z,53.13
2019-04-03T03:20:39.861Z,53.17
2019-04-03T03:21:45.555Z,53.12
2019-04-03T03:22:51.179Z,53.47
2019-04-03T03:23:57.155Z,53.73
2019-04-03T03:25:02.419Z,54.10
2019-04-03T03:26:07.716Z,54.32
2019-04-03T03:27:12.267Z,54.51
2019-04-03T03:28:16.590Z,54.64
2019-04-03T03:29:25.111Z,54.66
2019-04-03T03:30:42.673Z,54.91
2019-04-03T03:31:59.215Z,54.98
2019-04-03T03:32:40.726Z,54.89
2019-04-03T03:33:47.379Z,55.03
2019-04-03T03:35:05.112Z,55.12
2019-04-03T03:35:59.113Z,55.21
2019-04-03T03:37:04.143Z,55.36
2019-04-03T03:38:09.246Z,55.59
2019-04-03T03:39:13.945Z,55.58
2019-04-03T03:40:18.213Z,55.60
2019-04-03T03:41:24.171Z,55.52
2019-04-03T03:42:30.958Z,55.24
2019-04-03T03:43:38.207Z,55.11
2019-04-03T03:44:45.585Z,55.25
2019-04-03T03:45:52.560Z,55.04
2019-04-03T03:46:59.397Z,54.76
2019-04-03T03:48:03.392Z,54.60
2019-04-03T03:49:07.762Z,54.73
2019-04-03T03:50:12.790Z,54.40
2019-04-03T03:51:17.640Z,54.05
2019-04-03T03:52:21.806Z,54.06
2019-04-03T03:53:26.601Z,53.63
2019-04-03T03:54:31.703Z,53.16
2019-04-03T03:55:38.138Z,52.91
2019-04-03T03:56:43.916Z,52.82
2019-04-03T03:57:48.597Z,53.01
2019-04-03T03:58:53.242Z,53.28
2019-04-03T03:59:57.918Z,53.52
2019-04-03T04:01:02.053Z,53.68
2019-04-03T04:02:06.705Z,53.86
2019-04-03T04:03:12.009Z,53.91
2019-04-03T04:04:16.385Z,54.12
2019-04-03T04:05:22.179Z,54.29
2019-04-03T04:06:29.367Z,54.37
2019-04-03T04:07:35.824Z,54.39
2019-04-03T04:08:42.735Z,54.51
2019-04-03T04:09:45.032Z,54.64
2019-04-03T04:10:50.204Z,54.84
2019-04-03T04:11:55.491Z,54.99
2019-04-03T04:13:00.465Z,55.11
2019-04-03T04:14:05.009Z,55.09
2019-04-03T04:15:09.092Z,55.21
2019-04-03T04:16:13.536Z,55.20
2019-04-03T04:17:18.810Z,55.12
2019-04-03T04:18:25.002Z,55.31
2019-04-03T04:19:30.994Z,55.38
2019-04-03T04:20:37.790Z,55.41
2019-04-03T04:21:44.560Z,55.55
2019-04-03T04:22:50.425Z,55.63
2019-04-03T04:23:56.704Z,55.67
2019-04-03T04:25:04.715Z,55.72
2019-04-03T04:26:09.205Z,55.68
2019-04-03T04:27:13.774Z,55.74
2019-04-03T04:28:18.646Z,55.74
2019-04-03T04:29:23.673Z,55.83
2019-04-03T04:30:28.058Z,55.79
2019-04-03T04:31:32.496Z,55.67
2019-04-03T04:32:36.855Z,55.59
2019-04-03T04:33:40.782Z,55.51
2019-04-03T04:34:44.859Z,55.71
2019-04-03T04:35:51.674Z,55.90
2019-04-03T04:36:56.046Z,55.90
2019-04-03T04:38:00.439Z,56.01
2019-04-03T04:39:06.177Z,56.07
2019-04-03T04:40:10.492Z,56.02
2019-04-03T04:41:14.381Z,56.01
2019-04-03T04:42:18.983Z,56.08
2019-04-03T04:43:23.144Z,56.21
2019-04-03T04:44:27.060Z,56.40
2019-04-03T04:45:33.272Z,56.36
2019-04-03T04:46:37.311Z,56.42
2019-04-03T04:47:41.370Z,56.50
2019-04-03T04:48:45.537Z,56.52
2019-04-03T04:49:49.469Z,56.55
2019-04-03T04:50:55.111Z,56.55
2019-04-03T04:51:59.396Z,56.55
2019-04-03T04:53:03.410Z,56.54
2019-04-03T04:54:07.531Z,56.52
2019-04-03T04:55:11.624Z,56.45
2019-04-03T04:56:15.749Z,56.54
2019-04-03T04:57:19.836Z,56.46
2019-04-03T04:58:23.887Z,56.55
2019-04-03T04:59:28.043Z,56.63
2019-04-03T05:00:32.539Z,56.66
2019-04-03T05:01:36.730Z,56.83
2019-04-03T05:02:41.215Z,56.86
2019-04-03T05:03:45.386Z,56.69
2019-04-03T05:04:49.303Z,56.68
2019-04-03T05:05:53.141Z,56.79
2019-04-03T05:06:59.706Z,56.92
2019-04-03T05:08:03.479Z,57.10
2019-04-03T05:09:07.993Z,57.27
2019-04-03T05:10:12.422Z,57.34
2019-04-03T05:11:16.495Z,57.46
2019-04-03T05:12:20.843Z,57.70
2019-04-03T05:13:25.418Z,57.89
2019-04-03T05:14:30.091Z,57.99
2019-04-03T05:15:34.400Z,57.99
2019-04-03T05:16:38.381Z,57.91
2019-04-03T05:17:42.378Z,58.00
2019-04-03T05:18:46.553Z,58.24
2019-04-03T05:19:50.809Z,58.30
2019-04-03T05:20:55.370Z,58.42
2019-04-03T05:21:59.518Z,58.70
2019-04-03T05:23:03.877Z,59.02
2019-04-03T05:24:13.060Z,59.27
2019-04-03T05:25:13.844Z,59.42
2019-04-03T05:26:20.976Z,59.62
2019-04-03T05:27:24.379Z,59.76
2019-04-03T05:28:28.351Z,59.52
2019-04-03T05:29:34.756Z,59.59
2019-04-03T05:30:39.569Z,59.64
2019-04-03T05:31:43.608Z,59.65
2019-04-03T05:32:48.662Z,59.60
2019-04-03T05:33:53.175Z,59.48
2019-04-03T05:34:57.683Z,59.33
2019-04-03T05:36:01.680Z,59.28
2019-04-03T05:37:05.767Z,59.34
2019-04-03T05:38:10.213Z,59.52
2019-04-03T05:39:14.707Z,59.56
2019-04-03T05:40:18.688Z,59.54
2019-04-03T05:41:22.542Z,59.84
2019-04-03T05:42:26.964Z,60.15
2019-04-03T05:43:32.478Z,60.50
2019-04-03T05:44:36.889Z,60.69
2019-04-03T05:45:42.129Z,60.80
2019-04-03T05:46:46.401Z,60.95
2019-04-03T05:47:52.594Z,61.04
2019-04-03T05:48:56.886Z,61.08
2019-04-03T05:50:01.326Z,60.98
2019-04-03T05:51:05.523Z,60.99
2019-04-03T05:52:09.745Z,61.12
2019-04-03T05:53:13.839Z,61.14
2019-04-03T05:54:18.162Z,61.12
2019-04-03T05:55:22.083Z,60.92
2019-04-03T05:56:26.249Z,60.86
2019-04-03T05:57:30.406Z,60.90
2019-04-03T05:58:34.566Z,61.01
2019-04-03T05:59:38.973Z,61.17
2019-04-03T06:00:43.137Z,61.12
2019-04-03T06:01:47.288Z,60.97
2019-04-03T06:02:53.142Z,61.01
2019-04-03T06:03:57.543Z,60.88
2019-04-03T06:05:01.974Z,60.47
2019-04-03T06:06:06.203Z,60.39
2019-04-03T06:07:10.366Z,60.51
2019-04-03T06:08:14.979Z,60.53
2019-04-03T06:09:21.752Z,60.52
2019-04-03T06:10:27.767Z,60.01
2019-04-03T06:11:31.942Z,59.98
2019-04-03T06:12:37.512Z,59.94
2019-04-03T06:13:41.684Z,59.87
2019-04-03T06:14:46.202Z,59.79
2019-04-03T06:15:52.745Z,59.72
2019-04-03T06:16:56.796Z,59.72
2019-04-03T06:18:00.658Z,59.70
2019-04-03T06:19:06.674Z,59.65
2019-04-03T06:20:11.413Z,59.63
2019-04-03T06:21:16.086Z,59.61
2019-04-03T06:22:21.992Z,59.63
2019-04-03T06:23:26.371Z,59.73
2019-04-03T06:24:30.321Z,59.94
2019-04-03T06:25:34.871Z,59.79
2019-04-03T06:26:39.582Z,59.82
2019-04-03T06:27:46.259Z,59.69
2019-04-03T06:28:50.290Z,59.85
2019-04-03T06:29:55.534Z,59.86
2019-04-03T06:31:00.108Z,59.89
2019-04-03T06:32:06.026Z,59.89
2019-04-03T06:33:10.185Z,59.74
2019-04-03T06:34:14.695Z,59.43
2019-04-03T06:35:18.679Z,59.17
2019-04-03T06:36:23.006Z,59.12
2019-04-03T06:37:27.189Z,59.09
2019-04-03T06:38:31.387Z,59.13
2019-04-03T06:39:35.638Z,59.36
2019-04-03T06:40:39.715Z,59.46
2019-04-03T06:41:43.527Z,59.24
2019-04-03T06:42:47.628Z,59.05
2019-04-03T06:43:54.062Z,58.74
2019-04-03T06:44:57.985Z,58.40
2019-04-03T06:46:02.075Z,58.54
2019-04-03T06:47:05.987Z,58.76
2019-04-03T06:48:10.063Z,59.06
2019-04-03T06:49:13.971Z,59.28
2019-04-03T06:50:17.964Z,59.47
2019-04-03T06:51:21.728Z,59.42
2019-04-03T06:52:25.702Z,59.34
2019-04-03T06:53:29.602Z,59.18
2019-04-03T06:54:34.211Z,59.05
2019-04-03T06:55:38.344Z,59.02
2019-04-03T06:56:42.627Z,59.02
2019-04-03T06:57:46.525Z,58.80
2019-04-03T06:58:50.879Z,58.58
2019-04-03T06:59:54.837Z,58.10
2019-04-03T07:00:58.739Z,58.10
2019-04-03T07:02:02.655Z,58.18
2019-04-03T07:03:06.488Z,58.18
2019-04-03T07:04:10.557Z,58.04
2019-04-03T07:05:15.124Z,57.96
2019-04-03T07:06:19.570Z,58.24
2019-04-03T07:07:33.425Z,58.43
2019-04-03T07:08:34.627Z,58.12
2019-04-03T07:09:36.793Z,57.89
2019-04-03T07:10:40.513Z,57.79
2019-04-03T07:11:44.865Z,57.75
2019-04-03T07:12:49.200Z,58.02
2019-04-03T07:13:54.323Z,58.13
2019-04-03T07:14:58.259Z,58.15
2019-04-03T07:16:02.859Z,58.15
2019-04-03T07:17:07.350Z,58.13
2019-04-03T07:18:11.508Z,57.90
2019-04-03T07:19:15.542Z,57.83
2019-04-03T07:20:20.838Z,57.90
2019-04-03T07:21:27.449Z,58.06
2019-04-03T07:22:30.816Z,58.07
2019-04-03T07:23:34.759Z,58.07
2019-04-03T07:24:39.353Z,57.96
2019-04-03T07:25:43.277Z,57.94
2019-04-03T07:26:47.853Z,57.66
2019-04-03T07:27:51.808Z,57.62
2019-04-03T07:28:56.311Z,57.62
2019-04-03T07:30:00.401Z,57.64
2019-04-03T07:31:04.534Z,57.40
2019-04-03T07:32:08.673Z,57.41
2019-04-03T07:33:12.590Z,57.47
2019-04-03T07:34:16.465Z,57.48
2019-04-03T07:35:20.590Z,57.74
2019-04-03T07:36:24.590Z,57.92
2019-04-03T07:37:28.874Z,58.07
2019-04-03T07:38:32.781Z,57.94
2019-04-03T07:39:37.007Z,57.77
2019-04-03T07:40:41.006Z,57.69
2019-04-03T07:41:45.475Z,57.86
2019-04-03T07:42:49.389Z,58.06
2019-04-03T07:43:53.645Z,58.44
2019-04-03T07:44:57.482Z,58.06
2019-04-03T07:46:03.444Z,57.68
2019-04-03T07:47:07.608Z,57.32
2019-04-03T07:48:11.671Z,56.88
2019-04-03T07:49:15.652Z,56.62
2019-04-03T07:50:19.929Z,56.27
2019-04-03T07:51:23.903Z,55.96
2019-04-03T07:52:28.012Z,55.88
2019-04-03T07:53:33.039Z,55.63
2019-04-03T07:54:37.137Z,55.65
2019-04-03T07:55:43.803Z,55.03
2019-04-03T07:56:47.148Z,54.33
2019-04-03T07:57:51.765Z,53.57
2019-04-03T07:58:55.990Z,53.35
2019-04-03T07:59:59.964Z,53.32
2019-04-03T08:01:04.207Z,53.26
2019-04-03T08:02:10.132Z,53.31
2019-04-03T08:03:14.406Z,53.34
2019-04-03T08:04:18.238Z,52.92
2019-04-03T08:05:22.263Z,52.81
2019-04-03T08:06:26.752Z,52.70
2019-04-03T08:07:30.889Z,52.51
2019-04-03T08:08:34.800Z,52.49
2019-04-03T08:09:38.639Z,52.66
2019-04-03T08:10:43.180Z,52.62
2019-04-03T08:11:46.963Z,52.52
2019-04-03T08:12:51.206Z,52.47
2019-04-03T08:13:55.753Z,52.39
2019-04-03T08:15:00.466Z,52.51
2019-04-03T08:16:04.377Z,52.67
2019-04-03T08:17:08.847Z,52.54
2019-04-03T08:18:12.945Z,52.63
2019-04-03T08:19:17.103Z,52.84
2019-04-03T08:20:20.938Z,53.10
2019-04-03T08:21:25.159Z,52.90
2019-04-03T08:22:29.320Z,52.90
2019-04-03T08:23:34.676Z,52.84
2019-04-03T08:24:40.157Z,52.86
2019-04-03T08:25:47.571Z,53.04
2019-04-03T08:26:52.094Z,53.34
2019-04-03T08:27:56.465Z,53.82
2019-04-03T08:29:01.794Z,54.15
2019-04-03T08:30:08.541Z,54.39
2019-04-03T08:31:12.488Z,54.33
2019-04-03T08:32:17.091Z,54.17
2019-04-03T08:33:26.047Z,53.98
2019-04-03T08:34:30.681Z,54.03
2019-04-03T08:35:35.488Z,53.89
2019-04-03T08:36:39.927Z,53.86
2019-04-03T08:37:43.896Z,53.68
2019-04-03T08:38:48.686Z,53.44
2019-04-03T08:39:53.192Z,52.80
2019-04-03T08:40:57.685Z,52.72
2019-04-03T08:42:01.738Z,52.67
2019-04-03T08:43:05.727Z,52.44
2019-04-03T08:44:09.800Z,52.20
2019-04-03T08:45:14.085Z,52.12
2019-04-03T08:46:18.277Z,52.27
2019-04-03T08:47:22.378Z,52.47
2019-04-03T08:48:26.310Z,52.06
2019-04-03T08:49:30.527Z,51.42
2019-04-03T08:50:34.750Z,51.22
2019-04-03T08:51:38.981Z,51.23
2019-04-03T08:52:43.250Z,51.19
2019-04-03T08:53:47.818Z,50.36
2019-04-03T08:54:51.893Z,49.95
2019-04-03T08:55:56.631Z,49.60
2019-04-03T08:57:00.757Z,49.62
2019-04-03T08:58:04.833Z,49.32
2019-04-03T08:59:08.742Z,49.17
2019-04-03T09:00:13.385Z,49.22
2019-04-03T09:01:17.714Z,49.18
2019-04-03T09:02:21.961Z,49.15
2019-04-03T09:03:26.435Z,48.78
2019-04-03T09:04:30.422Z,48.77
2019-04-03T09:05:34.583Z,48.75
2019-04-03T09:06:38.514Z,48.47
2019-04-03T09:07:42.694Z,48.45
2019-04-03T09:08:47.255Z,48.10
2019-04-03T09:09:51.178Z,48.41
2019-04-03T09:10:55.160Z,48.45
2019-04-03T09:11:59.069Z,49.02
2019-04-03T09:13:15.371Z,49.27
2019-04-03T09:14:09.177Z,48.79
2019-04-03T09:15:13.514Z,48.79
2019-04-03T09:16:17.949Z,49.15
2019-04-03T09:17:22.370Z,48.93
2019-04-03T09:18:27.565Z,48.80
2019-04-03T09:19:32.001Z,48.71
2019-04-03T09:20:36.116Z,48.78
2019-04-03T09:21:40.327Z,48.89
2019-04-03T09:22:44.618Z,49.19
2019-04-03T09:23:49.312Z,49.30
2019-04-03T09:24:53.259Z,49.38
2019-04-03T09:25:57.518Z,49.58
2019-04-03T09:27:01.932Z,49.91
2019-04-03T09:28:06.190Z,50.57
2019-04-03T09:29:12.636Z,50.35
2019-04-03T09:30:16.708Z,50.47
2019-04-03T09:31:21.000Z,50.60
2019-04-03T09:32:25.667Z,50.61
2019-04-03T09:33:30.257Z,50.62
2019-04-03T09:34:34.877Z,50.52
2019-04-03T09:35:39.034Z,50.68
2019-04-03T09:36:43.178Z,50.36
2019-04-03T09:37:47.082Z,50.17
2019-04-03T09:38:51.703Z,50.09
2019-04-03T09:39:56.512Z,49.61
2019-04-03T09:41:01.013Z,49.02
2019-04-03T09:42:04.989Z,48.39
2019-04-03T09:43:09.632Z,47.88
2019-04-03T09:44:13.559Z,47.64
2019-04-03T09:45:18.091Z,47.61
2019-04-03T09:46:22.497Z,48.18
2019-04-03T09:47:26.468Z,48.52
2019-04-03T09:48:30.364Z,48.84
2019-04-03T09:49:34.779Z,49.08
2019-04-03T09:50:38.912Z,48.92
2019-04-03T09:51:42.871Z,48.40
2019-04-03T09:52:49.912Z,48.15
2019-04-03T09:53:52.527Z,48.21
2019-04-03T09:54:59.746Z,48.34
2019-04-03T09:56:02.449Z,48.43
2019-04-03T09:57:06.541Z,48.75
2019-04-03T09:58:10.569Z,49.02
2019-04-03T09:59:16.140Z,49.41
2019-04-03T10:00:20.611Z,49.47
2019-04-03T10:01:24.887Z,49.77
2019-04-03T10:02:28.798Z,50.03
2019-04-03T10:03:34.121Z,49.99
2019-04-03T10:04:38.123Z,49.70
2019-04-03T10:05:42.105Z,49.46
2019-04-03T10:06:46.513Z,49.38
2019-04-03T10:07:50.669Z,49.13
2019-04-03T10:08:54.674Z,48.96
2019-04-03T10:09:58.662Z,48.78
2019-04-03T10:11:02.650Z,48.91
2019-04-03T10:12:06.856Z,48.69
2019-04-03T10:13:10.646Z,48.64
2019-04-03T10:14:14.519Z,48.51
2019-04-03T10:15:19.140Z,48.19
2019-04-03T10:16:23.263Z,48.04
2019-04-03T10:17:27.160Z,47.81
2019-04-03T10:18:30.998Z,47.66
2019-04-03T10:19:35.167Z,47.23
2019-04-03T10:20:39.916Z,47.00
2019-04-03T10:21:44.305Z,46.83
2019-04-03T10:22:48.598Z,46.35
2019-04-03T10:23:53.031Z,46.43
2019-04-03T10:25:00.056Z,46.60
2019-04-03T10:26:03.359Z,46.96
2019-04-03T10:27:07.314Z,46.95
2019-04-03T10:28:13.908Z,46.69
2019-04-03T10:29:19.090Z,46.73
2019-04-03T10:30:23.992Z,46.10
2019-04-03T10:31:28.125Z,46.33
2019-04-03T10:32:32.409Z,46.72
2019-04-03T10:33:36.914Z,46.44
2019-04-03T10:34:41.347Z,45.95
2019-04-03T10:35:47.346Z,45.62
2019-04-03T10:36:51.710Z,45.43
2019-04-03T10:37:55.856Z,44.77
2019-04-03T10:39:00.199Z,44.33
2019-04-03T10:40:05.933Z,44.45
2019-04-03T10:41:11.161Z,44.36
2019-04-03T10:42:16.005Z,44.36
2019-04-03T10:43:20.265Z,44.40
2019-04-03T10:44:24.250Z,44.35
2019-04-03T10:45:28.238Z,44.19
2019-04-03T10:46:32.531Z,44.01
2019-04-03T10:47:42.795Z,43.50
2019-04-03T10:48:42.466Z,43.06
2019-04-03T10:49:46.717Z,42.57
2019-04-03T10:50:50.564Z,42.37
2019-04-03T10:51:55.146Z,42.57
2019-04-03T10:52:59.482Z,43.03
2019-04-03T10:54:04.450Z,43.30
2019-04-03T10:55:10.187Z,43.15
2019-04-03T10:56:14.433Z,43.24
2019-04-03T10:57:18.902Z,43.30
2019-04-03T10:58:22.886Z,42.86
2019-04-03T10:59:26.964Z,42.56
2019-04-03T11:00:30.952Z,42.11
2019-04-03T11:01:35.606Z,41.43
2019-04-03T11:02:39.994Z,41.20
2019-04-03T11:03:44.578Z,40.99
2019-04-03T11:04:48.669Z,40.44
2019-04-03T11:05:53.020Z,39.91
2019-04-03T11:06:57.254Z,39.65
2019-04-03T11:08:01.501Z,39.76
2019-04-03T11:09:08.733Z,39.58
2019-04-03T11:10:13.525Z,39.51
2019-04-03T11:11:17.989Z,39.37
2019-04-03T11:12:22.332Z,39.41
2019-04-03T11:13:26.764Z,39.40
2019-04-03T11:14:31.011Z,39.49
2019-04-03T11:15:35.177Z,39.52
2019-04-03T11:16:39.540Z,39.50
2019-04-03T11:17:44.078Z,39.48
2019-04-03T11:18:58.681Z,39.49
2019-04-03T11:19:54.601Z,39.52
2019-04-03T11:20:58.963Z,39.32
2019-04-03T11:22:03.018Z,39.09
2019-04-03T11:23:08.410Z,38.92
2019-04-03T11:24:13.236Z,38.75
2019-04-03T11:25:17.499Z,38.46
2019-04-03T11:26:24.308Z,38.42
2019-04-03T11:27:40.861Z,38.22
2019-04-03T11:28:37.058Z,38.24
2019-04-03T11:29:40.876Z,38.19
2019-04-03T11:30:45.417Z,38.08
2019-04-03T11:31:49.711Z,37.63
2019-04-03T11:32:53.843Z,37.64
2019-04-03T11:33:58.359Z,37.71
2019-04-03T11:35:02.817Z,37.62
2019-04-03T11:36:06.890Z,37.56
2019-04-03T11:37:10.882Z,37.26
2019-04-03T11:38:25.699Z,37.22
2019-04-03T11:39:21.236Z,37.91
2019-04-03T11:40:25.675Z,38.03
2019-04-03T11:41:30.342Z,37.96
2019-04-03T11:42:34.366Z,38.08
2019-04-03T11:43:38.809Z,38.11
2019-04-03T11:44:42.976Z,37.98
2019-04-03T11:45:47.042Z,37.98
2019-04-03T11:46:51.150Z,38.17
2019-04-03T11:47:55.011Z,38.48
2019-04-03T11:48:59.167Z,38.36
2019-04-03T11:50:03.291Z,37.86
2019-04-03T11:51:07.602Z,37.52
2019-04-03T11:52:11.640Z,37.38
2019-04-03T11:53:15.848Z,37.14
2019-04-03T11:54:19.742Z,36.76
2019-04-03T11:55:23.715Z,36.53
2019-04-03T11:56:27.631Z,36.99
2019-04-03T11:57:31.891Z,37.65
2019-04-03T11:58:35.994Z,37.56
2019-04-03T11:59:40.245Z,37.10
2019-04-03T12:00:46.426Z,37.16
2019-04-03T12:01:51.124Z,37.53
2019-04-03T12:02:55.637Z,37.76
2019-04-03T12:03:59.901Z,38.00
2019-04-03T12:05:03.804Z,38.17
2019-04-03T12:06:08.016Z,38.10
2019-04-03T12:07:12.387Z,38.11
2019-04-03T12:08:17.082Z,38.28
2019-04-03T12:09:21.621Z,38.37
2019-04-03T12:10:26.191Z,38.11
2019-04-03T12:11:30.567Z,38.19
2019-04-03T12:12:34.904Z,38.45
2019-04-03T12:13:39.171Z,38.61
2019-04-03T12:14:43.460Z,38.87
2019-04-03T12:15:51.988Z,38.88
2019-04-03T12:16:57.635Z,38.70
2019-04-03T12:18:02.349Z,38.47
2019-04-03T12:19:07.101Z,38.66
2019-04-03T12:20:12.820Z,38.71
2019-04-03T12:21:18.908Z,38.81
2019-04-03T12:22:23.643Z,39.04
2019-04-03T12:23:27.868Z,38.84
2019-04-03T12:24:32.014Z,39.33
2019-04-03T12:25:39.460Z,39.63
2019-04-03T12:26:44.078Z,40.06
2019-04-03T12:27:48.396Z,40.46
2019-04-03T12:28:52.789Z,40.60
2019-04-03T12:29:56.704Z,40.91
2019-04-03T12:31:01.453Z,41.23
2019-04-03T12:32:07.709Z,41.40
2019-04-03T12:33:12.259Z,41.22
2019-04-03T12:34:16.510Z,41.32
2019-04-03T12:35:20.678Z,41.40
2019-04-03T12:36:27.069Z,41.64
2019-04-03T12:37:30.443Z,41.83
2019-04-03T12:38:35.242Z,41.72
2019-04-03T12:39:39.924Z,41.52
2019-04-03T12:40:44.333Z,41.47
2019-04-03T12:41:48.252Z,41.32
2019-04-03T12:42:52.487Z,41.36
2019-04-03T12:43:57.040Z,41.36
2019-04-03T12:45:01.270Z,41.17
2019-04-03T12:46:05.520Z,41.01
2019-04-03T12:47:12.785Z,41.09
2019-04-03T12:48:17.379Z,41.30
2019-04-03T12:49:22.786Z,41.35
2019-04-03T12:50:28.581Z,41.78
2019-04-03T12:51:32.843Z,41.49
2019-04-03T12:52:37.661Z,41.86
2019-04-03T12:53:41.971Z,42.05
2019-04-03T12:54:48.606Z,42.08
2019-04-03T12:55:52.451Z,42.48
2019-04-03T12:56:56.424Z,42.56
2019-04-03T12:58:00.437Z,42.96
2019-04-03T12:59:07.444Z,42.65
2019-04-03T13:00:12.966Z,42.62
2019-04-03T13:01:18.416Z,42.71
2019-04-03T13:02:22.943Z,42.80
2019-04-03T13:03:26.923Z,42.41
2019-04-03T13:04:32.731Z,42.09
2019-04-03T13:05:38.035Z,42.25
2019-04-03T13:06:42.829Z,41.83
2019-04-03T13:07:47.707Z,41.97
2019-04-03T13:08:52.089Z,42.14
2019-04-03T13:09:56.876Z,42.01
2019-04-03T13:11:01.674Z,41.94
2019-04-03T13:12:06.805Z,42.35
2019-04-03T13:13:10.706Z,42.52
2019-04-03T13:14:24.260Z,42.12
2019-04-03T13:15:20.662Z,42.12
2019-04-03T13:16:24.766Z,41.87
2019-04-03T13:17:28.988Z,41.79
2019-04-03T13:18:33.316Z,42.10
2019-04-03T13:19:37.587Z,41.86
2019-04-03T13:20:41.948Z,41.79
2019-04-03T13:21:46.151Z,42.06
2019-04-03T13:22:50.721Z,42.16
2019-04-03T13:23:55.259Z,42.05
2019-04-03T13:24:59.657Z,42.11
2019-04-03T13:26:04.199Z,42.06
2019-04-03T13:27:08.762Z,41.95
2019-04-03T13:28:13.051Z,41.99
2019-04-03T13:29:16.899Z,42.04
2019-04-03T13:30:21.349Z,41.83
2019-04-03T13:31:26.250Z,41.52
2019-04-03T13:32:30.466Z,41.61
2019-04-03T13:33:36.332Z,41.62
2019-04-03T13:34:42.577Z,41.93
2019-04-03T13:35:47.199Z,41.88
2019-04-03T13:36:52.602Z,42.08
2019-04-03T13:37:56.759Z,42.64
2019-04-03T13:39:01.617Z,42.84
2019-04-03T13:40:07.073Z,42.96
2019-04-03T13:41:11.821Z,43.24
2019-04-03T13:42:16.330Z,43.43
2019-04-03T13:43:21.927Z,43.47
2019-04-03T13:44:27.913Z,43.47
2019-04-03T13:45:32.163Z,43.41
2019-04-03T13:46:37.476Z,43.28
2019-04-03T13:47:43.529Z,43.05
2019-04-03T13:48:47.361Z,42.69
2019-04-03T13:49:51.429Z,42.46
2019-04-03T13:50:56.231Z,42.24
2019-04-03T13:52:05.516Z,42.06
2019-04-03T13:53:05.963Z,42.15